METAR Data
IDs: Format: Raw Decoded Include TAF

Data at: 0202 UTC 01 Mar 2021

ZSNJ 010100Z 30002MPS 270V330 5000 -RA BR SCT010 OVC017 11/11 Q1018 BECMG TL0230 BKN013 OVC020